• Join FlightAware (Why Join?)
  • Login
  • US Flag 
05:00PM EDT


 

Airport Tracker/Info


-or-


 

Live Flight TrackerFlight Track Log ✈ SAS403 ✈ 18-May-2013 ✈ ESSA / ARN - EKCH / CPH

Flight Track Log - Related Links

Times and Time Zones

All times are in EDT time to prevent confusion due to time zone crossing. See the SAS403 flight status page for this flight to view local times or setup timezone preferences in your user account.

Time Position Orientation Groundspeed Altitude Reporting Facility
EDT Latitude Longitude Course Direction KTS MPH feet Rate Location/Type
04:11AM 59.6660 17.9930 74° East 146 168 1,000  Level FlightAware
04:11AM 59.6700 18.0290 78° East 162 186 1,800 1,800 Climbing FlightAware
04:11AM 59.6750 18.0470 61° Northeast 175 201 2,200 1,560 Climbing FlightAware
04:12AM 59.6870 18.0610 30° Northeast 203 234 2,600 2,220 Climbing FlightAware
04:12AM 59.7110 18.0670 North 220 253 3,700 2,280 Climbing FlightAware
04:12AM 59.7440 18.0530 348° North 265 305 4,700 1,980 Climbing FlightAware
04:13AM 59.7610 18.0280 323° Northwest 294 338 5,200 1,560 Climbing FlightAware
04:13AM 59.7710 17.9940 300° West 319 367 5,500 1,200 Climbing FlightAware
04:13AM 59.7740 17.9630 281° West 333 383 5,700 2,100 Climbing FlightAware
04:14AM 59.7600 17.8740 253° West 350 403 6,900 2,820 Climbing FlightAware
04:14AM 59.7350 17.8050 234° Southwest 356 410 8,300 3,300 Climbing FlightAware
04:14AM 59.7190 17.7720 226° Southwest 356 410 9,100 3,180 Climbing FlightAware
04:15AM 59.6590 17.6800 218° Southwest 360 414 11,500 2,940 Climbing FlightAware
04:16AM 59.6040 17.6060 214° Southwest 369 425 13,300 2,520 Climbing FlightAware
04:16AM 59.5360 17.5340 208° Southwest 380 437 15,100 2,280 Climbing FlightAware
04:17AM 59.4740 17.4640 210° Southwest 390 449 16,600 2,220 Climbing FlightAware
04:18AM 59.4100 17.3930 209° Southwest 400 460 18,100 2,160 Climbing FlightAware
04:19AM 59.3360 17.3100 210° Southwest 409 471 19,700 2,040 Climbing FlightAware
04:19AM 59.2700 17.2360 210° Southwest 416 479 21,000 1,740 Climbing FlightAware
04:20AM 59.1960 17.1510 210° Southwest 426 490 22,200 1,500 Climbing FlightAware
04:21AM 59.1310 17.0660 214° Southwest 437 503 23,200 1,380 Climbing FlightAware
04:21AM 59.0680 16.9580 221° Southwest 448 516 24,100 1,380 Climbing FlightAware
04:22AM 58.9940 16.8350 221° Southwest 457 526 25,200 1,440 Climbing FlightAware
04:23AM 58.9300 16.7280 221° Southwest 460 529 26,200 1,320 Climbing FlightAware
04:23AM 58.8670 16.6230 221° Southwest 466 536 27,000 1,080 Climbing FlightAware
04:24AM 58.7940 16.5030 220° Southwest 474 545 27,800 1,080 Climbing FlightAware
04:25AM 58.7250 16.3900 220° Southwest 482 555 28,600 1,620 Climbing FlightAware
04:26AM 58.6480 16.2630 221° Southwest 471 542 30,100 1,440 Climbing FlightAware
04:26AM 58.5830 16.1580 220° Southwest 476 548 30,700 1,320 Climbing FlightAware
04:27AM 58.5170 16.0520 220° Southwest 466 536 31,900 1,380 Climbing FlightAware
04:28AM 58.4440 15.9350 220° Southwest 469 540 32,700 1,320 Climbing FlightAware
04:28AM 58.3780 15.8280 220° Southwest 463 533 33,800 960 Climbing FlightAware
04:29AM 58.3120 15.7240 220° Southwest 459 528 34,000 120 Climbing FlightAware
04:30AM 58.2400 15.6090 220° Southwest 462 532 34,000  Level FlightAware
04:30AM 58.1760 15.5090 220° Southwest 463 533 34,000  Level FlightAware
04:31AM 58.0970 15.3850 220° Southwest 465 535 34,000  Level FlightAware
04:32AM 58.0320 15.2830 220° Southwest 466 536 34,000  Level FlightAware
04:33AM 57.9550 15.1650 219° Southwest 468 539 34,000  Level FlightAware
04:33AM 57.8890 15.0620 220° Southwest 469 540 34,000  Level FlightAware
04:34AM 57.8240 14.9630 219° Southwest 469 540 34,000  Level FlightAware
04:35AM 57.7490 14.8480 219° Southwest 470 541 34,000  Level FlightAware
04:35AM 57.6790 14.7430 219° Southwest 469 540 34,000  Level FlightAware
04:36AM 57.6140 14.6440 219° Southwest 470 541 34,000  Level FlightAware
04:37AM 57.5350 14.5250 219° Southwest 471 542 34,000  Level FlightAware
04:37AM 57.4670 14.4240 219° Southwest 471 542 34,000  Level FlightAware
04:38AM 57.3920 14.3120 219° Southwest 471 542 34,000  Level FlightAware
04:39AM 57.3220 14.2090 218° Southwest 469 540 34,000  Level FlightAware
04:39AM 57.2550 14.1100 219° Southwest 468 539 34,000 -240 Level FlightAware
04:40AM 57.1790 13.9980 219° Southwest 466 536 33,700 -660 Descending FlightAware
04:41AM 57.1100 13.8980 218° Southwest 464 534 33,100 -1,800 Descending FlightAware
04:42AM 57.0360 13.7800 221° Southwest 472 543 31,200 -3,060 Descending FlightAware
04:42AM 56.9720 13.6750 222° Southwest 480 552 28,800 -3,060 Descending FlightAware
04:43AM 56.8960 13.5510 222° Southwest 467 537 26,900 -2,340 Descending FlightAware
04:44AM 56.8360 13.4520 222° Southwest 451 519 25,500 -2,040 Descending FlightAware
04:44AM 56.7700 13.3590 218° Southwest 455 524 24,200 -2,220 Descending FlightAware
04:45AM 56.6930 13.2570 216° Southwest 446 513 22,400 -2,520 Descending FlightAware
04:46AM 56.6280 13.1700 216° Southwest 430 495 20,700 -2,520 Descending FlightAware
04:46AM 56.5620 13.0840 216° Southwest 418 481 19,100 -2,400 Descending FlightAware
04:47AM 56.4950 12.9960 216° Southwest 405 466 17,300 -2,400 Descending FlightAware
04:48AM 56.4260 12.9060 216° Southwest 393 452 15,500 -2,340 Descending FlightAware
04:49AM 56.3680 12.8310 216° Southwest 384 442 14,000 -2,220 Descending FlightAware
04:49AM 56.3040 12.7490 215° Southwest 368 423 12,400 -1,680 Descending FlightAware
04:50AM 56.2440 12.7050 202° Southwest 362 417 11,700 -1,020 Descending FlightAware
04:51AM 56.1710 12.6590 199° South 361 415 11,000 -1,020 Descending FlightAware
04:51AM 56.1080 12.6190 199° South 357 411 10,300 -1,020 Descending FlightAware
04:52AM 56.0710 12.5960 199° South 352 405 9,900 -900 Descending FlightAware
04:52AM 56.0460 12.5800 200° South 350 403 9,700 -960 Descending FlightAware
04:53AM 56.0010 12.5520 199° South 347 399 9,200 -1,200 Descending FlightAware
04:53AM 55.9850 12.5420 199° South 344 396 8,900 -2,400 Descending FlightAware
04:53AM 55.9400 12.5140 199° South 344 396 7,600 -2,220 Descending FlightAware
04:54AM 55.8980 12.4880 199° South 333 383 6,700 -1,860 Descending FlightAware
04:54AM 55.8610 12.4670 198° South 326 375 5,900 -1,980 Descending FlightAware
04:54AM 55.8370 12.4590 191° South 319 367 5,400 -1,680 Descending FlightAware
04:55AM 55.8020 12.4490 189° South 305 351 4,800 -1,200 Descending FlightAware
04:55AM 55.7620 12.4370 190° South 286 329 4,300 -900 Descending FlightAware
04:56AM 55.7260 12.4280 188° South 269 310 3,900 -660 Descending FlightAware
04:56AM 55.6950 12.4210 187° South 251 289 3,700 -600 Descending FlightAware
04:57AM 55.6610 12.4140 187° South 232 267 3,400 -600 Descending FlightAware
04:57AM 55.6310 12.4150 179° South 214 246 3,100 -480 Descending FlightAware
04:58AM 55.6090 12.4170 177° South 200 230 3,000 -480 Descending FlightAware
04:58AM 55.5870 12.4210 174° South 184 212 2,700 -600 Descending FlightAware
04:58AM 55.5750 12.4280 162° South 165 190 2,600 -420 Descending FlightAware
04:59AM 55.5660 12.4400 143° Southeast 153 176 2,500 -600 Descending FlightAware
04:59AM 55.5600 12.4550 125° Southeast 148 170 2,300 -840 Descending FlightAware
04:59AM 55.5570 12.4730 106° East 142 163 2,100 -660 Descending FlightAware
05:00AM 55.5580 12.5160 88° East 135 155 1,700 -780 Descending FlightAware
05:00AM 55.5620 12.5480 78° East 137 158 1,200 -1,020 Descending FlightAware
05:01AM 55.5730 12.5750 54° Northeast 135 155 700 -900 Descending FlightAware
05:01AM 55.5860 12.5930 38° Northeast 134 154 400 -420 Descending FlightAware
05:02AM 55.6020 12.6200 44° Northeast 135 155 300 -180 Descending FlightAware
05:04AM 55.6179 12.6560 52° Northeast  Level Estimated
05:05AM 55.6179 12.6560 159° South  Level Estimated
05:06AM 55.6179 12.6560 159° South  Level Estimated
05:07AM 55.6179 12.6560 159° South  Level Estimated
05:08AM 55.6179 12.6560 159° South  Level Estimated